Ratmalana, Sri Lanka

8:46 AM IST on August 31, 2014 (GMT +0530)
Bandaranaike International | Change Station
CLOSE
Current Station
Airport
Location: Katunayake,
Elevation: 26 ft
Nearby Weather Stations

Elev 26 ft 7.18 °N, 79.88 °E | Updated 1 hour ago

Scattered Clouds
Scattered Clouds
82 °F
Feels Like 90 °F
N
8
Wind Variable Wind from WSW

Today
High -- | Low -- °F
--% Chance of Precip.
Yesterday
High -- | Low -- °F
Precip. -- in
6:03 AM 6:18 PM
Waxing Crescent, 27% visible
Pressure 29.80 in
Visibility 6.2 miles
Clouds Scattered Clouds 1600 ft
Heat Index 90 °F
Dew Point 75 °F
Humidity 79%
Rainfall 0.00 in
Snow Depth Not available.
UV 2 out of 12
Pollen Not available.
Air Quality Not available.
Flu Activity Not available.
METAR VCBI 310210Z 25007KT 210V280 9999 SCT016 28/24 Q1009 NOSIG

More Conditions Fewer Conditions

Pressure 29.80 in
Visibility 6.2 miles
Clouds Scattered Clouds 1600 ft
Heat Index 90 °F
Dew Point 75 °F
Humidity 79%
Rainfall 0.00 in
Snow Depth Not available.
UV 2 out of 12
Pollen Not available.
Air Quality Not available.
Flu Activity Not available.
METAR VCBI 310210Z 25007KT 210V280 9999 SCT016 28/24 Q1009 NOSIG

More Conditions Fewer Conditions

10-Day Weather Forecast

Almanac

Astronomy

Aug. 31, 2014 Rise Set
Actual Time 6:03 AM IST 6:18 PM IST
Civil Twilight 5:42 AM IST 6:39 PM IST
Nautical Twilight 5:17 AM IST 7:03 PM IST
Astronomical Twilight 4:53 AM IST 7:28 PM IST
Moon 10:14 AM IST 10:24 PM IST
Length of Visible Light 12h 57m
Length of Day
12h 14m
Tomorrow will be 0m 21s shorter.
Waxing Crescent, 27% of the Moon is Illuminated
Aug 30
Waxing Crescent
Sep 2
First Quarter
Sep 8
Full
Sep 15
Last Quarter
Sep 24
New

Yesterday's Extremes

Country Highs Country Lows

Community

WunderPhotos

Upload Photos

1,748,767 photos uploaded!

Nearby

Snow Depth

Not available.

Earthquake Activity

City Distance Mag. Time & Date
No recent earthquake activity has been reported nearby.
Minimum magnitude displayed is 2.5.

Coastal Water Temperatures

Place Temperature
No Stations Reporting

Nearby Weather Stations